Decoded Metar for PANC (ANCHORAGE in AK, USA) (IATA:ANC) | Meteo·Mobile Aviation Weather
aviador You're here:

PANC Decoded Metar

ANCHORAGE in AK, USA
Report Time2018-12-10 13:53:00
UTC Time2018-12-10 14:54:15
Flight Rules vfr VFR
Wind360° at 12 kt
W.Decomp.*RWY 33: 11.8 kt HW 2.3 kt RCW
RWY 07: 0.2 kt HW 12 kt LCW
Visibility9999 m
Phenomena:N/A
Clouds:Few 065 Hf
Broken 085 Hf
Overcast 110 Hf
Expected CloudBase > 1,200 ft AGL from Temp-Dew spread
Ceiling8,500 ft
Temp-4°C (ISA -19)
Dew Point-7°C (80% RH)
AAT-11.1°C
QNH983 hPa
Density Alt-1,096 ft
Elevation125 ft
Report Wrong Elevation
Raw Report
PANC 101353Z 36012KT 10SM FEW065 BKN085 OVC110 M04/M07 A2904=

Extra information for PANC:More info

Metar Taf Metar & Taf Last 4 Metars F.Rules Stats Wind Profile Meteogram Temp Stats Airport Information Weather charts Add Link Nearby VenuesMetar ALERT Operation Metar Decoded Social comments

AIRNAV info for PANC
Anchorage Webcam N